Time;durP1;ratioP1;P1;durP2;ratioP2;P2;SDS_P1;SDS_P2;PMS_P1;PMS_P2;Temp;Humidity;BMP_temperature;BMP_pressure;BME280_temperature;BME280_humidity;BME280_pressure;Samples;Min_cycle;Max_cycle;Signal;HPM_P1;HPM_P2
2023/03/15 00:00:55;;;;;;;2.47;1.77;;;;;;;;;;4972084;28;20047;-87
2023/03/15 00:03:23;;;;;;;2.38;1.45;;;;;;;;;;4951990;28;20420;-85
2023/03/15 00:05:51;;;;;;;1.23;0.90;;;;;;;;;;4953231;28;20043;-85
2023/03/15 00:08:17;;;;;;;1.95;1.02;;;;;;;;;;4956186;28;20090;-86
2023/03/15 00:10:44;;;;;;;1.50;1.40;;;;;;;;;;4970754;28;20030;-85
2023/03/15 00:13:10;;;;;;;4.60;2.72;;;;;;;;;;4978175;28;20041;-83
2023/03/15 00:15:43;;;;;;;0.93;0.88;;;;;;;;;;4972406;28;20050;-86
2023/03/15 00:18:08;;;;;;;2.97;2.55;;;;;;;;;;4971617;28;20041;-86
2023/03/15 00:20:36;;;;;;;8.05;2.80;;;;;;;;;;4953424;28;20031;-87
2023/03/15 00:23:01;;;;;;;1.83;1.65;;;;;;;;;;4955523;28;20042;-86
2023/03/15 00:25:27;;;;;;;30.10;14.32;;;;;;;;;;4956699;28;20026;-85
2023/03/15 00:27:52;;;;;;;12.02;2.03;;;;;;;;;;4987128;28;20042;-85
2023/03/15 00:30:17;;;;;;;4.32;2.65;;;;;;;;;;4961536;28;20650;-84
2023/03/15 00:32:43;;;;;;;2.72;2.22;;;;;;;;;;4975516;28;20026;-86
2023/03/15 00:35:11;;;;;;;3.35;2.00;;;;;;;;;;4966364;28;20045;-85
2023/03/15 00:37:37;;;;;;;3.42;2.50;;;;;;;;;;4979205;28;20401;-86
2023/03/15 00:40:05;;;;;;;7.80;2.55;;;;;;;;;;4975614;28;20062;-85
2023/03/15 00:42:32;;;;;;;2.88;2.25;;;;;;;;;;4971913;28;20050;-86
2023/03/15 00:44:58;;;;;;;2.17;1.73;;;;;;;;;;4975451;28;20034;-85
2023/03/15 00:47:23;;;;;;;2.47;2.08;;;;;;;;;;4956022;28;20054;-86
2023/03/15 00:49:49;;;;;;;2.28;1.60;;;;;;;;;;4974128;28;20026;-87
2023/03/15 00:52:15;;;;;;;1.60;1.50;;;;;;;;;;4958880;28;20645;-86
2023/03/15 00:54:42;;;;;;;1.83;1.40;;;;;;;;;;4970439;28;20035;-85
2023/03/15 00:57:07;;;;;;;3.65;2.15;;;;;;;;;;4974481;28;20061;-84
2023/03/15 00:59:34;;;;;;;2.60;1.55;;;;;;;;;;4955833;28;20405;-85
2023/03/15 01:02:03;;;;;;;1.20;1.15;;;;;;;;;;4962939;28;20039;-86
2023/03/15 01:04:30;;;;;;;3.60;2.13;;;;;;;;;;4960842;28;20033;-86
2023/03/15 01:06:56;;;;;;;4.53;2.00;;;;;;;;;;4976624;28;20042;-87
2023/03/15 01:09:21;;;;;;;5.65;2.72;;;;;;;;;;4970430;28;20034;-86
2023/03/15 01:11:47;;;;;;;2.17;1.75;;;;;;;;;;4961500;28;20061;-86
2023/03/15 01:14:12;;;;;;;1.75;1.65;;;;;;;;;;4969220;28;20113;-84
2023/03/15 01:16:37;;;;;;;1.73;1.63;;;;;;;;;;4982902;28;20043;-84
2023/03/15 01:19:03;;;;;;;3.92;2.45;;;;;;;;;;4981202;28;20479;-85
2023/03/15 01:21:28;;;;;;;1.90;1.58;;;;;;;;;;4963652;28;20563;-86
2023/03/15 01:23:54;;;;;;;3.53;2.20;;;;;;;;;;4977733;28;20031;-87
2023/03/15 01:26:19;;;;;;;4.43;2.10;;;;;;;;;;4978547;28;20026;-87
2023/03/15 01:28:45;;;;;;;5.03;1.60;;;;;;;;;;4984975;28;20022;-87
2023/03/15 01:31:20;;;;;;;2.20;1.92;;;;;;;;;;4980791;28;20110;-86
2023/03/15 01:33:46;;;;;;;1.40;1.30;;;;;;;;;;4963501;28;20131;-87
2023/03/15 01:36:11;;;;;;;5.68;2.00;;;;;;;;;;4970810;28;20115;-86
2023/03/15 01:38:37;;;;;;;2.20;1.48;;;;;;;;;;4968197;28;20917;-87
2023/03/15 01:41:03;;;;;;;7.63;2.30;;;;;;;;;;4997007;28;20014;-90
2023/03/15 01:43:30;;;;;;;1.90;1.50;;;;;;;;;;4992419;28;20027;-88
2023/03/15 01:46:05;;;;;;;4.13;1.17;;;;;;;;;;4984712;28;20034;-88
2023/03/15 01:48:43;;;;;;;1.52;1.40;;;;;;;;;;4963573;29;20027;-88
2023/03/15 01:51:13;;;;;;;2.33;1.05;;;;;;;;;;4978525;28;20027;-88
2023/03/15 01:53:46;;;;;;;1.92;1.30;;;;;;;;;;4972639;28;20030;-86
2023/03/15 01:56:12;;;;;;;4.50;1.75;;;;;;;;;;4983162;28;20018;-85
2023/03/15 01:58:40;;;;;;;3.35;2.17;;;;;;;;;;4974877;28;20011;-88
2023/03/15 02:01:07;;;;;;;1.27;1.25;;;;;;;;;;4993961;28;20007;-88
2023/03/15 02:03:45;;;;;;;2.25;1.38;;;;;;;;;;4982009;28;20017;-88
2023/03/15 02:06:16;;;;;;;3.47;1.30;;;;;;;;;;4983769;28;20027;-89
2023/03/15 02:08:48;;;;;;;3.10;1.23;;;;;;;;;;5001406;28;20007;-88
2023/03/15 02:11:16;;;;;;;2.13;1.33;;;;;;;;;;4988016;28;20025;-88
2023/03/15 02:13:42;;;;;;;2.50;1.08;;;;;;;;;;4983421;28;20034;-86
2023/03/15 02:16:08;;;;;;;3.83;0.90;;;;;;;;;;4991070;28;20018;-88
2023/03/15 02:18:34;;;;;;;1.23;1.13;;;;;;;;;;4983654;28;20070;-86
2023/03/15 02:21:25;;;;;;;1.80;1.40;;;;;;;;;;4983165;28;20061;-87
2023/03/15 02:24:14;;;;;;;5.20;2.05;;;;;;;;;;4983506;28;20007;-87
2023/03/15 02:26:56;;;;;;;1.20;1.10;;;;;;;;;;4981494;28;20031;-87
2023/03/15 02:29:24;;;;;;;1.13;1.08;;;;;;;;;;4974091;28;20022;-87
2023/03/15 02:31:50;;;;;;;2.40;1.42;;;;;;;;;;4995724;28;20007;-87
2023/03/15 02:34:16;;;;;;;2.45;1.40;;;;;;;;;;4986409;28;20007;-87
2023/03/15 02:36:41;;;;;;;1.65;1.00;;;;;;;;;;4989403;28;20030;-88
2023/03/15 02:39:18;;;;;;;1.73;1.10;;;;;;;;;;4983358;28;20018;-86
2023/03/15 02:41:51;;;;;;;3.20;1.35;;;;;;;;;;4980257;28;20037;-84
2023/03/15 02:44:34;;;;;;;1.15;1.08;;;;;;;;;;4979518;28;20045;-84
2023/03/15 02:47:22;;;;;;;;;;;;;;;;;;5000482;28;20041;-83
2023/03/15 02:49:51;;;;;;;2.97;1.00;;;;;;;;;;4989515;28;19973;-83
2023/03/15 02:52:16;;;;;;;4.55;0.80;;;;;;;;;;4979579;28;20094;-87
2023/03/15 02:54:42;;;;;;;1.58;1.38;;;;;;;;;;4974527;28;20042;-86
2023/03/15 02:57:18;;;;;;;6.10;1.40;;;;;;;;;;4999600;28;20010;-85
2023/03/15 02:59:43;;;;;;;0.65;0.63;;;;;;;;;;5003731;28;20026;-87
2023/03/15 03:02:10;;;;;;;1.60;1.20;;;;;;;;;;4975572;28;20042;-87
2023/03/15 03:04:37;;;;;;;5.55;1.10;;;;;;;;;;4998434;28;20018;-87
2023/03/15 03:07:02;;;;;;;3.08;1.48;;;;;;;;;;4990822;28;20034;-86
2023/03/15 03:09:28;;;;;;;2.90;1.00;;;;;;;;;;4993195;28;20026;-87
2023/03/15 03:11:53;;;;;;;1.65;0.82;;;;;;;;;;4990340;28;20100;-86
2023/03/15 03:14:19;;;;;;;1.33;0.73;;;;;;;;;;4992629;28;20053;-87
2023/03/15 03:16:44;;;;;;;2.20;1.02;;;;;;;;;;4970813;28;20055;-89
2023/03/15 03:19:13;;;;;;;2.40;1.20;;;;;;;;;;4963524;28;20026;-89
2023/03/15 03:21:38;;;;;;;1.80;0.88;;;;;;;;;;4978877;28;20030;-89
2023/03/15 03:24:04;;;;;;;2.10;0.80;;;;;;;;;;4945586;28;20050;-88
2023/03/15 03:26:31;;;;;;;1.42;1.10;;;;;;;;;;4956192;28;20550;-87
2023/03/15 03:28:57;;;;;;;1.08;0.90;;;;;;;;;;4953124;28;20124;-88
2023/03/15 03:31:24;;;;;;;1.85;0.98;;;;;;;;;;4977568;28;20564;-88
2023/03/15 03:33:50;;;;;;;1.77;0.98;;;;;;;;;;4960943;28;20023;-87
2023/03/15 03:36:16;;;;;;;3.08;1.33;;;;;;;;;;4952744;28;20118;-88
2023/03/15 03:38:44;;;;;;;2.83;0.90;;;;;;;;;;4963267;28;20082;-86
2023/03/15 03:41:10;;;;;;;0.73;0.73;;;;;;;;;;4977150;28;20023;-88
2023/03/15 03:43:36;;;;;;;2.25;1.17;;;;;;;;;;4948420;28;20102;-88
2023/03/15 03:46:02;;;;;;;1.85;1.25;;;;;;;;;;4977493;28;20066;-87
2023/03/15 03:48:28;;;;;;;3.28;1.10;;;;;;;;;;4962577;28;20026;-87
2023/03/15 03:50:53;;;;;;;2.28;1.88;;;;;;;;;;4967546;28;20054;-88
2023/03/15 03:53:19;;;;;;;2.22;1.15;;;;;;;;;;4961767;28;20026;-87
2023/03/15 03:55:45;;;;;;;1.65;0.93;;;;;;;;;;4959289;28;20034;-89
2023/03/15 03:58:11;;;;;;;1.45;1.05;;;;;;;;;;4976913;28;20046;-89
2023/03/15 04:00:37;;;;;;;2.90;0.88;;;;;;;;;;4967752;28;20026;-88
2023/03/15 04:03:03;;;;;;;1.48;0.88;;;;;;;;;;4969565;28;20031;-88
2023/03/15 04:05:28;;;;;;;2.55;1.30;;;;;;;;;;4975626;28;20077;-89
2023/03/15 04:07:54;;;;;;;2.67;1.73;;;;;;;;;;4963858;28;20027;-89
2023/03/15 04:10:25;;;;;;;1.10;1.00;;;;;;;;;;4967404;28;20038;-88
2023/03/15 04:12:52;;;;;;;2.00;1.33;;;;;;;;;;4964744;28;20117;-88
2023/03/15 04:15:17;;;;;;;1.20;1.10;;;;;;;;;;4985156;28;20033;-87
2023/03/15 04:17:43;;;;;;;0.90;0.90;;;;;;;;;;4992034;28;20019;-88
2023/03/15 04:20:11;;;;;;;1.15;1.00;;;;;;;;;;4990650;28;20089;-88
2023/03/15 04:22:37;;;;;;;0.73;0.73;;;;;;;;;;4960208;28;20035;-88
2023/03/15 04:25:03;;;;;;;2.85;1.48;;;;;;;;;;4959139;28;20038;-87
2023/03/15 04:27:29;;;;;;;12.80;2.72;;;;;;;;;;4970045;28;20031;-88
2023/03/15 04:29:54;;;;;;;1.17;1.00;;;;;;;;;;4977948;28;20023;-88
2023/03/15 04:32:19;;;;;;;3.88;1.48;;;;;;;;;;4962792;28;20030;-89
2023/03/15 04:34:50;;;;;;;1.00;0.93;;;;;;;;;;4982682;28;20031;-89
2023/03/15 04:37:16;;;;;;;1.58;1.35;;;;;;;;;;4969847;28;20030;-88
2023/03/15 04:39:42;;;;;;;3.97;1.42;;;;;;;;;;4950703;28;20031;-87
2023/03/15 04:42:07;;;;;;;7.10;1.92;;;;;;;;;;4963897;28;20441;-87
2023/03/15 04:44:32;;;;;;;2.38;1.42;;;;;;;;;;4977922;28;20026;-87
2023/03/15 04:46:58;;;;;;;3.10;1.80;;;;;;;;;;4966995;28;20484;-88
2023/03/15 04:49:23;;;;;;;4.07;2.22;;;;;;;;;;4980512;28;20369;-88
2023/03/15 04:51:49;;;;;;;4.72;1.20;;;;;;;;;;4987493;28;20043;-87
2023/03/15 04:54:14;;;;;;;7.95;1.77;;;;;;;;;;4981377;28;20037;-88
2023/03/15 04:56:40;;;;;;;1.58;1.48;;;;;;;;;;4964733;28;20090;-89
2023/03/15 04:59:06;;;;;;;3.03;1.27;;;;;;;;;;4961926;28;20022;-89
2023/03/15 05:01:32;;;;;;;3.10;1.40;;;;;;;;;;4975728;28;20084;-89
2023/03/15 05:03:58;;;;;;;5.25;1.85;;;;;;;;;;4985289;28;20374;-88
2023/03/15 05:06:24;;;;;;;2.03;1.58;;;;;;;;;;4979593;28;20062;-87
2023/03/15 05:08:49;;;;;;;3.72;1.88;;;;;;;;;;4989647;28;20117;-89
2023/03/15 05:11:15;;;;;;;1.95;1.55;;;;;;;;;;4976912;28;20021;-87
2023/03/15 05:13:45;;;;;;;1.90;1.38;;;;;;;;;;4973595;28;20401;-87
2023/03/15 05:16:10;;;;;;;4.18;1.95;;;;;;;;;;4958490;28;20168;-88
2023/03/15 05:18:36;;;;;;;1.60;1.50;;;;;;;;;;4962243;28;20036;-89
2023/03/15 05:21:01;;;;;;;1.90;1.50;;;;;;;;;;4968928;28;20023;-88
2023/03/15 05:23:27;;;;;;;2.50;1.10;;;;;;;;;;4962413;28;20117;-90
2023/03/15 05:25:54;;;;;;;1.98;1.40;;;;;;;;;;4962648;28;20031;-89
2023/03/15 05:28:23;;;;;;;2.38;2.05;;;;;;;;;;4987845;28;20105;-89
2023/03/15 05:30:50;;;;;;;1.40;1.30;;;;;;;;;;4965684;28;20024;-89
2023/03/15 05:33:16;;;;;;;3.00;1.83;;;;;;;;;;4981046;28;20022;-90
2023/03/15 05:35:43;;;;;;;8.82;1.65;;;;;;;;;;4963913;28;20106;-90
2023/03/15 05:38:13;;;;;;;8.70;1.42;;;;;;;;;;4964421;28;20038;-89
2023/03/15 05:40:45;;;;;;;1.58;1.48;;;;;;;;;;4980725;28;20023;-89
2023/03/15 05:43:11;;;;;;;2.42;1.23;;;;;;;;;;4962885;28;20034;-89
2023/03/15 05:45:37;;;;;;;1.33;1.10;;;;;;;;;;4977825;28;20019;-89
2023/03/15 05:48:04;;;;;;;4.97;1.52;;;;;;;;;;4961469;28;20048;-89
2023/03/15 05:50:30;;;;;;;4.45;1.88;;;;;;;;;;4987659;28;20023;-89
2023/03/15 06:29:04;;;;;;;2.55;1.73;;;;;;;;;;4956961;29;20054;-87
2023/03/15 06:31:30;;;;;;;4.15;1.33;;;;;;;;;;4960482;28;20532;-87
2023/03/15 06:33:55;;;;;;;1.75;1.35;;;;;;;;;;4971119;28;20058;-87
2023/03/15 06:36:21;;;;;;;2.15;1.83;;;;;;;;;;4976187;28;20018;-88
2023/03/15 06:38:46;;;;;;;1.92;1.40;;;;;;;;;;4972764;28;20027;-87
2023/03/15 06:41:14;;;;;;;4.80;2.38;;;;;;;;;;4962899;28;20023;-89
2023/03/15 06:43:39;;;;;;;3.95;1.80;;;;;;;;;;4974254;28;20033;-88
2023/03/15 06:46:04;;;;;;;7.75;1.65;;;;;;;;;;4972123;28;20098;-89
2023/03/15 06:48:30;;;;;;;6.18;1.63;;;;;;;;;;4961114;28;20042;-88
2023/03/15 06:50:55;;;;;;;2.22;1.48;;;;;;;;;;4962378;28;20023;-88
2023/03/15 06:53:21;;;;;;;4.35;1.65;;;;;;;;;;4980307;28;20177;-86
2023/03/15 06:55:46;;;;;;;7.35;1.75;;;;;;;;;;4978810;28;20022;-86
2023/03/15 06:58:13;;;;;;;7.85;1.90;;;;;;;;;;4977587;28;20030;-87
2023/03/15 07:00:39;;;;;;;5.30;1.67;;;;;;;;;;4985124;28;20054;-86
2023/03/15 07:03:04;;;;;;;6.70;1.70;;;;;;;;;;4986312;28;20030;-84
2023/03/15 07:05:30;;;;;;;2.30;1.08;;;;;;;;;;4980242;28;20034;-87
2023/03/15 07:07:56;;;;;;;9.73;1.70;;;;;;;;;;4988850;28;20043;-86
2023/03/15 07:10:21;;;;;;;6.43;1.73;;;;;;;;;;4994262;28;20031;-84
2023/03/15 07:12:46;;;;;;;4.70;1.52;;;;;;;;;;4995254;28;20119;-86
2023/03/15 07:15:12;;;;;;;6.57;1.70;;;;;;;;;;5003898;28;20026;-84
2023/03/15 07:17:37;;;;;;;5.07;1.42;;;;;;;;;;4977869;28;20037;-84
2023/03/15 07:20:04;;;;;;;5.80;1.33;;;;;;;;;;4994828;28;20026;-85
2023/03/15 07:22:33;;;;;;;5.68;1.73;;;;;;;;;;4970409;28;20019;-88
2023/03/15 07:24:58;;;;;;;3.03;1.35;;;;;;;;;;4983706;28;20023;-88
2023/03/15 07:27:23;;;;;;;6.35;1.80;;;;;;;;;;4982904;28;20029;-86
2023/03/15 07:29:49;;;;;;;6.95;1.92;;;;;;;;;;4982674;28;20023;-88
2023/03/15 07:32:14;;;;;;;7.05;2.03;;;;;;;;;;4980832;28;20030;-87
2023/03/15 07:34:40;;;;;;;8.23;1.88;;;;;;;;;;4958770;28;20026;-87
2023/03/15 07:37:05;;;;;;;7.72;1.92;;;;;;;;;;4959702;28;20030;-86
2023/03/15 07:39:34;;;;;;;5.20;1.20;;;;;;;;;;4990755;28;20030;-90
2023/03/15 07:41:59;;;;;;;5.20;1.50;;;;;;;;;;4979619;28;20128;-86
2023/03/15 07:44:25;;;;;;;5.78;1.70;;;;;;;;;;4978358;28;20030;-85
2023/03/15 07:46:50;;;;;;;8.25;1.92;;;;;;;;;;4977016;28;20041;-87
2023/03/15 07:49:16;;;;;;;5.10;1.73;;;;;;;;;;4956474;28;20050;-87
2023/03/15 07:51:41;;;;;;;8.52;1.92;;;;;;;;;;4983403;28;20045;-86
2023/03/15 07:54:07;;;;;;;6.43;1.50;;;;;;;;;;4960565;28;20117;-86
2023/03/15 07:56:33;;;;;;;2.30;1.48;;;;;;;;;;4978741;28;20031;-89
2023/03/15 07:58:59;;;;;;;3.58;1.50;;;;;;;;;;4960477;28;20069;-88
2023/03/15 08:01:24;;;;;;;4.78;1.15;;;;;;;;;;4962117;28;20441;-87
2023/03/15 08:03:50;;;;;;;5.70;1.55;;;;;;;;;;4982115;28;20030;-86
2023/03/15 08:06:15;;;;;;;8.52;1.70;;;;;;;;;;4969005;28;20031;-85
2023/03/15 08:08:40;;;;;;;4.13;1.15;;;;;;;;;;4971865;28;20034;-82
2023/03/15 08:11:06;;;;;;;6.35;1.55;;;;;;;;;;4971487;28;20022;-88
2023/03/15 08:13:31;;;;;;;5.68;1.20;;;;;;;;;;4953365;28;20042;-88
2023/03/15 08:15:57;;;;;;;6.15;1.70;;;;;;;;;;4958499;28;20074;-88
2023/03/15 08:18:22;;;;;;;6.72;1.65;;;;;;;;;;4963670;28;20086;-89
2023/03/15 08:20:48;;;;;;;3.78;1.33;;;;;;;;;;4967486;28;20031;-90
2023/03/15 08:23:15;;;;;;;4.53;1.15;;;;;;;;;;4944488;29;20041;-91
2023/03/15 08:25:41;;;;;;;3.50;1.48;;;;;;;;;;4962664;28;20027;-88
2023/03/15 08:28:07;;;;;;;2.72;1.13;;;;;;;;;;4963491;28;20045;-89
2023/03/15 08:30:33;;;;;;;4.10;1.95;;;;;;;;;;4990259;28;20062;-89
2023/03/15 08:32:58;;;;;;;1.27;1.17;;;;;;;;;;4972198;28;20027;-89
2023/03/15 08:35:24;;;;;;;4.78;1.08;;;;;;;;;;4990024;28;20031;-89
2023/03/15 08:37:51;;;;;;;2.72;1.30;;;;;;;;;;4964722;28;20026;-89
2023/03/15 08:40:24;;;;;;;0.65;0.63;;;;;;;;;;4976868;28;20078;-89
2023/03/15 08:42:51;;;;;;;2.45;1.27;;;;;;;;;;4962167;28;20440;-88
2023/03/15 08:45:17;;;;;;;5.05;1.73;;;;;;;;;;4962480;28;20576;-88
2023/03/15 08:47:42;;;;;;;3.15;1.40;;;;;;;;;;4962270;28;20055;-87
2023/03/15 08:50:11;;;;;;;3.00;1.73;;;;;;;;;;4971830;28;19999;-88
2023/03/15 08:52:37;;;;;;;5.75;1.70;;;;;;;;;;4983050;28;20031;-87
2023/03/15 08:55:03;;;;;;;4.15;1.52;;;;;;;;;;4964081;28;20065;-87
2023/03/15 08:57:31;;;;;;;4.40;1.40;;;;;;;;;;4963395;28;20034;-87
2023/03/15 08:59:58;;;;;;;2.92;1.23;;;;;;;;;;4980615;28;20033;-86
2023/03/15 09:02:23;;;;;;;1.65;1.17;;;;;;;;;;4963351;28;20030;-88
2023/03/15 09:04:49;;;;;;;3.72;1.30;;;;;;;;;;4962626;28;20041;-87
2023/03/15 09:07:14;;;;;;;6.25;1.25;;;;;;;;;;4979018;28;20049;-88
2023/03/15 09:09:40;;;;;;;5.72;1.60;;;;;;;;;;4958684;28;20026;-88
2023/03/15 09:12:05;;;;;;;3.90;1.20;;;;;;;;;;4961302;28;20389;-88
2023/03/15 09:14:31;;;;;;;2.55;1.00;;;;;;;;;;4961874;28;20022;-87
2023/03/15 09:16:56;;;;;;;6.07;1.25;;;;;;;;;;4980277;28;20432;-88
2023/03/15 09:19:21;;;;;;;4.25;1.10;;;;;;;;;;4976700;28;20098;-87
2023/03/15 09:21:47;;;;;;;1.25;0.77;;;;;;;;;;4981642;28;20054;-88
2023/03/15 09:24:12;;;;;;;3.42;1.33;;;;;;;;;;4984459;28;20033;-86
2023/03/15 09:26:38;;;;;;;1.67;0.88;;;;;;;;;;4964936;28;20007;-88
2023/03/15 09:29:03;;;;;;;0.50;0.50;;;;;;;;;;4969823;29;20023;-87
2023/03/15 09:31:30;;;;;;;6.53;0.90;;;;;;;;;;4979528;28;20062;-89
2023/03/15 09:33:56;;;;;;;9.27;1.25;;;;;;;;;;4968255;28;20023;-87
2023/03/15 09:36:21;;;;;;;2.92;1.10;;;;;;;;;;4986714;28;20037;-88
2023/03/15 09:38:46;;;;;;;4.65;1.13;;;;;;;;;;4968840;28;20027;-89
2023/03/15 09:41:45;;;;;;;1.83;0.82;;;;;;;;;;4979443;28;20058;-90
2023/03/15 09:44:32;;;;;;;2.95;0.75;;;;;;;;;;4977467;28;20515;-88
2023/03/15 09:47:00;;;;;;;2.58;1.33;;;;;;;;;;4981450;28;20035;-88
2023/03/15 09:49:31;;;;;;;1.48;1.00;;;;;;;;;;4981653;28;20027;-88
2023/03/15 09:52:03;;;;;;;2.65;1.00;;;;;;;;;;4952190;28;20039;-87
2023/03/15 09:54:39;;;;;;;2.53;0.90;;;;;;;;;;4963097;28;20023;-88
2023/03/15 09:57:13;;;;;;;7.53;1.15;;;;;;;;;;4974970;28;20038;-90
2023/03/15 09:59:41;;;;;;;0.90;0.68;;;;;;;;;;4982156;28;20030;-90
2023/03/15 10:02:24;;;;;;;1.67;1.00;;;;;;;;;;4982913;28;20062;-89
2023/03/15 10:05:06;;;;;;;2.67;0.98;;;;;;;;;;4961192;28;20026;-88
2023/03/15 10:07:34;;;;;;;1.77;0.75;;;;;;;;;;4972523;28;20027;-87
2023/03/15 10:10:00;;;;;;;1.90;1.00;;;;;;;;;;4982268;28;20113;-88
2023/03/15 10:12:39;;;;;;;3.45;1.20;;;;;;;;;;4992860;28;20608;-89
2023/03/15 10:15:20;;;;;;;2.28;0.95;;;;;;;;;;4981469;28;20090;-88
2023/03/15 10:17:58;;;;;;;1.13;0.93;;;;;;;;;;4981863;28;20039;-88
2023/03/15 10:20:40;;;;;;;1.65;1.10;;;;;;;;;;4982998;28;20062;-88
2023/03/15 10:23:36;;;;;;;6.93;1.25;;;;;;;;;;4983977;28;20384;-88
2023/03/15 10:26:05;;;;;;;2.15;0.93;;;;;;;;;;4955504;29;20035;-90
2023/03/15 10:28:36;;;;;;;2.47;1.05;;;;;;;;;;4959954;28;20026;-88
2023/03/15 10:31:12;;;;;;;1.88;1.00;;;;;;;;;;4972299;28;20026;-89
2023/03/15 10:33:38;;;;;;;5.25;1.73;;;;;;;;;;4987845;28;20065;-87
2023/03/15 10:36:17;;;;;;;1.85;0.90;;;;;;;;;;4966168;28;20520;-88
2023/03/15 10:38:44;;;;;;;5.55;1.15;;;;;;;;;;4977569;28;20031;-89
2023/03/15 10:41:13;;;;;;;3.53;1.20;;;;;;;;;;4946900;28;20031;-88
2023/03/15 10:43:40;;;;;;;1.00;0.90;;;;;;;;;;4960327;28;20046;-88
2023/03/15 10:46:20;;;;;;;1.73;1.10;;;;;;;;;;4980255;28;20026;-89
2023/03/15 10:48:59;;;;;;;1.80;0.85;;;;;;;;;;4980560;28;20030;-88
2023/03/15 10:51:30;;;;;;;2.47;0.95;;;;;;;;;;4975253;28;20440;-87
2023/03/15 10:54:00;;;;;;;2.85;0.88;;;;;;;;;;4973578;28;20126;-86
2023/03/15 10:56:29;;;;;;;3.40;1.20;;;;;;;;;;4981160;28;20046;-88
2023/03/15 10:58:56;;;;;;;2.78;1.10;;;;;;;;;;4970179;28;20505;-86
2023/03/15 11:01:33;;;;;;;3.22;0.90;;;;;;;;;;4979905;28;20023;-88
2023/03/15 11:04:16;;;;;;;3.95;1.05;;;;;;;;;;4980671;28;20033;-85
2023/03/15 11:06:50;;;;;;;6.50;1.60;;;;;;;;;;4980796;28;20102;-88
2023/03/15 11:09:22;;;;;;;3.85;0.77;;;;;;;;;;4968006;28;20042;-88
2023/03/15 11:12:05;;;;;;;0.65;0.50;;;;;;;;;;4981062;28;20030;-87
2023/03/15 11:14:33;;;;;;;0.70;0.70;;;;;;;;;;4962555;28;20039;-87
2023/03/15 11:17:01;;;;;;;1.40;0.52;;;;;;;;;;4962526;28;20063;-88
2023/03/15 11:19:30;;;;;;;0.70;0.65;;;;;;;;;;4969242;28;20026;-88
2023/03/15 11:21:58;;;;;;;1.05;0.68;;;;;;;;;;4964617;28;20386;-87
2023/03/15 11:24:26;;;;;;;2.90;0.90;;;;;;;;;;4963305;28;20034;-88
2023/03/15 11:26:54;;;;;;;3.15;0.60;;;;;;;;;;4962537;28;20041;-87
2023/03/15 11:29:36;;;;;;;1.95;0.60;;;;;;;;;;4959344;28;20051;-86
2023/03/15 11:32:27;;;;;;;1.05;0.43;;;;;;;;;;4969956;28;20048;-86
2023/03/15 11:34:59;;;;;;;1.23;0.68;;;;;;;;;;4969481;28;20023;-88
2023/03/15 11:37:31;;;;;;;4.05;0.43;;;;;;;;;;4954680;28;20038;-87
2023/03/15 11:40:03;;;;;;;7.75;0.70;;;;;;;;;;4955640;28;20041;-86
2023/03/15 11:42:34;;;;;;;0.30;0.30;;;;;;;;;;4967068;28;20035;-87
2023/03/15 11:45:28;;;;;;;2.88;0.60;;;;;;;;;;4964197;28;20027;-88
2023/03/15 11:47:57;;;;;;;0.22;0.22;;;;;;;;;;4956201;28;20051;-88
2023/03/15 11:50:22;;;;;;;1.77;0.93;;;;;;;;;;4972158;28;20027;-86
2023/03/15 11:52:49;;;;;;;0.73;0.50;;;;;;;;;;4951495;28;20041;-86
2023/03/15 11:55:19;;;;;;;1.67;1.08;;;;;;;;;;4953859;28;20031;-87
2023/03/15 11:57:47;;;;;;;0.20;0.20;;;;;;;;;;4972966;28;20023;-87
2023/03/15 12:00:48;;;;;;;3.03;0.40;;;;;;;;;;4955849;28;20026;-87
2023/03/15 12:03:35;;;;;;;2.20;0.50;;;;;;;;;;4970488;28;20161;-88
2023/03/15 12:06:08;;;;;;;0.93;0.65;;;;;;;;;;4954678;28;20038;-88
2023/03/15 12:08:50;;;;;;;0.30;0.30;;;;;;;;;;4972220;28;20080;-86
2023/03/15 12:11:21;;;;;;;9.35;0.75;;;;;;;;;;4974258;28;20023;-87
2023/03/15 12:13:55;;;;;;;3.03;0.93;;;;;;;;;;4957441;28;20027;-87
2023/03/15 12:16:24;;;;;;;0.45;0.40;;;;;;;;;;4972515;28;20018;-87
2023/03/15 12:18:50;;;;;;;0.57;0.50;;;;;;;;;;4973901;28;20469;-87
2023/03/15 12:21:33;;;;;;;1.45;0.75;;;;;;;;;;4964528;28;20024;-87
2023/03/15 12:24:03;;;;;;;0.40;0.40;;;;;;;;;;4950928;28;20519;-86
2023/03/15 12:26:42;;;;;;;3.55;0.45;;;;;;;;;;4978255;28;20019;-86
2023/03/15 12:29:14;;;;;;;0.30;0.30;;;;;;;;;;4953086;28;20026;-87
2023/03/15 12:31:47;;;;;;;1.38;1.20;;;;;;;;;;4968681;28;20027;-85
2023/03/15 12:34:27;;;;;;;1.73;0.90;;;;;;;;;;4950846;28;20408;-85
2023/03/15 12:36:57;;;;;;;1.48;0.57;;;;;;;;;;4952112;28;20031;-87
2023/03/15 12:39:44;;;;;;;0.90;0.82;;;;;;;;;;4965161;28;20237;-85
2023/03/15 12:42:45;;;;;;;4.05;1.25;;;;;;;;;;4949035;28;20038;-85
2023/03/15 12:45:16;;;;;;;0.68;0.68;;;;;;;;;;4953709;28;20027;-86
2023/03/15 12:47:51;;;;;;;3.55;1.13;;;;;;;;;;4971296;28;20141;-86
2023/03/15 12:50:44;;;;;;;5.00;1.30;;;;;;;;;;4960330;28;20066;-86
2023/03/15 12:53:29;;;;;;;1.45;1.33;;;;;;;;;;4956783;28;20023;-85
2023/03/15 12:56:10;;;;;;;4.47;1.48;;;;;;;;;;4973480;28;20042;-85
2023/03/15 12:58:36;;;;;;;2.40;0.50;;;;;;;;;;4972397;28;20051;-87
2023/03/15 13:01:04;;;;;;;0.40;0.40;;;;;;;;;;4965540;28;20066;-85
2023/03/15 13:03:34;;;;;;;0.35;0.35;;;;;;;;;;4980660;28;20358;-87
2023/03/15 13:06:05;;;;;;;0.70;0.70;;;;;;;;;;4965262;28;20029;-87
2023/03/15 13:08:40;;;;;;;0.65;0.65;;;;;;;;;;4966983;28;20030;-86
2023/03/15 13:11:22;;;;;;;12.73;1.17;;;;;;;;;;4968025;28;20493;-86
2023/03/15 13:14:14;;;;;;;0.95;0.55;;;;;;;;;;4965577;28;20058;-86
2023/03/15 13:16:49;;;;;;;0.63;0.63;;;;;;;;;;4966603;28;20117;-88
2023/03/15 13:19:22;;;;;;;2.58;1.30;;;;;;;;;;4972115;28;20027;-86
2023/03/15 13:22:08;;;;;;;1.02;1.00;;;;;;;;;;4963490;28;20454;-84
2023/03/15 13:24:49;;;;;;;2.10;0.95;;;;;;;;;;4981065;28;20137;-83
2023/03/15 13:27:27;;;;;;;1.23;0.80;;;;;;;;;;4964433;28;20125;-83
2023/03/15 13:29:52;;;;;;;1.60;1.23;;;;;;;;;;4980021;28;20018;-84
2023/03/15 13:32:21;;;;;;;0.60;0.60;;;;;;;;;;4981218;28;20054;-86
2023/03/15 13:34:48;;;;;;;0.73;0.73;;;;;;;;;;4969225;28;20038;-85
2023/03/15 13:37:20;;;;;;;1.02;0.90;;;;;;;;;;4960200;28;20894;-89
2023/03/15 13:40:12;;;;;;;0.60;0.60;;;;;;;;;;4957121;28;20118;-88
2023/03/15 13:42:39;;;;;;;0.90;0.75;;;;;;;;;;4969759;28;20049;-88
2023/03/15 13:45:05;;;;;;;1.52;0.98;;;;;;;;;;4956932;28;20030;-89
2023/03/15 13:47:30;;;;;;;0.70;0.70;;;;;;;;;;4954901;28;20033;-89
2023/03/15 13:49:55;;;;;;;0.52;0.52;;;;;;;;;;4980602;28;20019;-88
2023/03/15 13:52:21;;;;;;;2.78;1.35;;;;;;;;;;4962672;28;20037;-91
2023/03/15 13:54:47;;;;;;;0.98;0.57;;;;;;;;;;4964942;28;20035;-90
2023/03/15 13:57:16;;;;;;;1.48;1.08;;;;;;;;;;4970817;28;20023;-87
2023/03/15 13:59:51;;;;;;;6.25;1.65;;;;;;;;;;4981981;28;20059;-87
2023/03/15 14:02:20;;;;;;;2.35;0.75;;;;;;;;;;4963507;28;20022;-87
2023/03/15 14:05:09;;;;;;;0.90;0.90;;;;;;;;;;4965740;28;20065;-86
2023/03/15 14:07:40;;;;;;;1.02;0.93;;;;;;;;;;4975211;28;20027;-87
2023/03/15 14:10:20;;;;;;;1.45;0.88;;;;;;;;;;4989493;28;20038;-83
2023/03/15 14:12:46;;;;;;;0.80;0.80;;;;;;;;;;4996528;28;20027;-83
2023/03/15 14:15:35;;;;;;;1.25;0.93;;;;;;;;;;4978453;28;20023;-89
2023/03/15 14:18:07;;;;;;;3.90;1.00;;;;;;;;;;4971818;28;20141;-88
2023/03/15 14:20:40;;;;;;;1.00;0.85;;;;;;;;;;4976570;28;20031;-88
2023/03/15 14:23:10;;;;;;;2.67;1.00;;;;;;;;;;4958196;28;20090;-86
2023/03/15 14:25:36;;;;;;;2.30;1.10;;;;;;;;;;4975713;28;20023;-87
2023/03/15 14:28:03;;;;;;;0.70;0.70;;;;;;;;;;4974253;28;20050;-86
2023/03/15 14:30:32;;;;;;;0.90;0.88;;;;;;;;;;4970125;28;20023;-86
2023/03/15 14:33:02;;;;;;;0.77;0.77;;;;;;;;;;4963465;28;20050;-87
2023/03/15 14:35:29;;;;;;;2.13;0.82;;;;;;;;;;4964157;28;20496;-86
2023/03/15 14:38:14;;;;;;;1.05;0.80;;;;;;;;;;4974731;28;20038;-86
2023/03/15 14:40:39;;;;;;;2.45;1.15;;;;;;;;;;4955990;28;20400;-85
2023/03/15 14:43:07;;;;;;;0.57;0.40;;;;;;;;;;4971068;28;20023;-86
2023/03/15 14:45:34;;;;;;;0.38;0.38;;;;;;;;;;4979389;28;20043;-86
2023/03/15 14:48:04;;;;;;;0.75;0.65;;;;;;;;;;4974835;28;20027;-84
2023/03/15 14:50:40;;;;;;;0.43;0.40;;;;;;;;;;4964849;28;20027;-83
2023/03/15 14:53:07;;;;;;;0.38;0.38;;;;;;;;;;4977742;28;20027;-87
2023/03/15 14:55:35;;;;;;;2.08;0.80;;;;;;;;;;4962531;28;20023;-84
2023/03/15 14:58:03;;;;;;;1.65;1.05;;;;;;;;;;4968690;28;20027;-83
2023/03/15 15:00:29;;;;;;;1.00;1.00;;;;;;;;;;4980284;28;20026;-85
2023/03/15 15:02:55;;;;;;;1.27;1.17;;;;;;;;;;4974312;28;20027;-85
2023/03/15 15:05:27;;;;;;;0.65;0.65;;;;;;;;;;4978565;28;20046;-86
2023/03/15 15:08:00;;;;;;;1.45;1.00;;;;;;;;;;4981108;28;20033;-84
2023/03/15 15:10:26;;;;;;;0.70;0.70;;;;;;;;;;4980842;28;20038;-87
2023/03/15 15:12:52;;;;;;;0.80;0.80;;;;;;;;;;4981715;28;20026;-85
2023/03/15 15:15:20;;;;;;;0.80;0.77;;;;;;;;;;4963676;28;20034;-86
2023/03/15 15:17:47;;;;;;;1.38;1.05;;;;;;;;;;4954930;28;20045;-86
2023/03/15 15:20:14;;;;;;;0.50;0.47;;;;;;;;;;4959210;28;20026;-85
2023/03/15 15:22:41;;;;;;;0.82;0.70;;;;;;;;;;4955171;28;20063;-83
2023/03/15 15:25:18;;;;;;;0.50;0.50;;;;;;;;;;4978915;28;20022;-84
2023/03/15 15:27:44;;;;;;;0.95;0.95;;;;;;;;;;4968560;28;20030;-82
2023/03/15 15:30:13;;;;;;;0.85;0.85;;;;;;;;;;4969180;28;20098;-84
2023/03/15 15:32:38;;;;;;;0.63;0.63;;;;;;;;;;4971250;28;20082;-82